Time;durP1;ratioP1;P1;durP2;ratioP2;P2;SDS_P1;SDS_P2;PMS_P1;PMS_P2;Temp;Humidity;BMP_temperature;BMP_pressure;BME280_temperature;BME280_humidity;BME280_pressure;Samples;Min_cycle;Max_cycle;Signal;HPM_P1;HPM_P2
2022/04/19 00:00:54;;;;;;;11.60;8.07;;;14.50;81.20;;;;;;5044001;28;20221;-31
2022/04/19 00:03:22;;;;;;;9.02;7.80;;;14.40;81.40;;;;;;5038773;28;20204;-32
2022/04/19 00:05:50;;;;;;;12.90;8.57;;;14.50;81.20;;;;;;5040561;28;20259;-32
2022/04/19 00:08:22;;;;;;;11.45;9.00;;;14.50;81.30;;;;;;5030419;28;20586;-31
2022/04/19 00:10:49;;;;;;;10.27;9.13;;;14.60;81.70;;;;;;5034586;28;20238;-31
2022/04/19 00:13:16;;;;;;;12.32;9.45;;;14.60;81.60;;;;;;5047957;28;20322;-32
2022/04/19 00:15:47;;;;;;;12.90;9.90;;;14.60;81.80;;;;;;5044259;28;20690;-32
2022/04/19 00:18:14;;;;;;;13.98;10.57;;;14.50;81.80;;;;;;5030904;28;20224;-32
2022/04/19 00:20:44;;;;;;;11.75;10.15;;;14.50;82.00;;;;;;5034034;28;20361;-32
2022/04/19 00:23:15;;;;;;;13.38;11.45;;;14.50;82.10;;;;;;5031109;28;20228;-32
2022/04/19 00:25:52;;;;;;;14.33;11.43;;;14.50;82.00;;;;;;5030287;28;20213;-32
2022/04/19 00:28:22;;;;;;;14.15;11.70;;;14.50;82.20;;;;;;5032866;28;20212;-32
2022/04/19 00:30:58;;;;;;;15.77;12.53;;;14.40;82.20;;;;;;5044022;28;20197;-32
2022/04/19 00:33:29;;;;;;;16.63;12.45;;;14.40;82.40;;;;;;5040137;28;20267;-32
2022/04/19 00:35:58;;;;;;;13.63;12.13;;;14.40;82.20;;;;;;5028486;28;20215;-32
2022/04/19 00:38:30;;;;;;;15.93;13.50;;;14.40;82.50;;;;;;5029110;28;20732;-32
2022/04/19 00:41:02;;;;;;;16.43;13.53;;;14.40;82.60;;;;;;5033890;28;20523;-32
2022/04/19 00:43:29;;;;;;;15.97;13.70;;;14.30;82.70;;;;;;5028798;28;20223;-32
2022/04/19 00:45:59;;;;;;;17.85;14.32;;;14.30;82.60;;;;;;5038144;28;20205;-32
2022/04/19 00:48:26;;;;;;;17.02;13.48;;;14.30;82.90;;;;;;5054306;28;20671;-32
2022/04/19 00:50:56;;;;;;;17.33;14.48;;;14.20;82.90;;;;;;5036798;28;20300;-32
2022/04/19 00:53:30;;;;;;;18.23;14.43;;;14.20;83.10;;;;;;5042562;28;20760;-32
2022/04/19 00:56:01;;;;;;;19.88;14.63;;;14.20;83.00;;;;;;5029216;28;20321;-32
2022/04/19 00:58:28;;;;;;;19.67;15.27;;;14.20;83.00;;;;;;5033874;28;20266;-32
2022/04/19 01:00:59;;;;;;;19.30;16.07;;;14.10;83.00;;;;;;5043875;28;20201;-32
2022/04/19 01:03:27;;;;;;;19.38;15.52;;;14.10;83.50;;;;;;5021132;28;20208;-32
2022/04/19 01:05:56;;;;;;;17.73;14.65;;;14.00;83.40;;;;;;5042711;28;20234;-33
2022/04/19 01:08:24;;;;;;;23.52;16.80;;;14.00;83.40;;;;;;5044661;28;20200;-32
2022/04/19 01:13:17;;;;;;;19.77;16.17;;;14.00;83.70;;;;;;5042894;28;20224;-33
2022/04/19 01:13:41;;;;;;;19.52;15.80;;;13.90;83.70;;;;;;5046295;28;20300;-32
2022/04/19 01:16:13;;;;;;;21.80;16.40;;;13.90;83.60;;;;;;5045537;28;20227;-32
2022/04/19 01:18:41;;;;;;;21.07;17.23;;;13.90;83.90;;;;;;5046621;28;20212;-32
2022/04/19 01:21:12;;;;;;;21.53;17.10;;;13.90;84.40;;;;;;5040517;28;20323;-32
2022/04/19 01:23:41;;;;;;;21.63;17.77;;;13.80;83.60;;;;;;5046666;28;20208;-32
2022/04/19 01:26:08;;;;;;;23.30;18.90;;;13.80;83.90;;;;;;5048730;28;20211;-32
2022/04/19 01:28:35;;;;;;;22.90;17.98;;;13.70;83.70;;;;;;5048079;28;20212;-32
2022/04/19 01:31:03;;;;;;;24.45;19.33;;;13.70;83.90;;;;;;5035023;28;20197;-32
2022/04/19 01:33:30;;;;;;;23.73;18.65;;;13.70;83.90;;;;;;5028127;28;20193;-32
2022/04/19 01:35:57;;;;;;;24.33;19.33;;;13.60;83.70;;;;;;5048543;28;20266;-33
2022/04/19 01:38:24;;;;;;;27.13;20.43;;;13.60;83.70;;;;;;5046816;28;20213;-32
2022/04/19 01:40:56;;;;;;;26.77;19.98;;;13.60;83.90;;;;;;5044550;28;20674;-32
2022/04/19 01:43:24;;;;;;;28.15;20.30;;;13.50;83.70;;;;;;5049632;28;20188;-33
2022/04/19 01:45:51;;;;;;;26.48;21.08;;;13.50;84.10;;;;;;5030853;28;20216;-32
2022/04/19 01:48:23;;;;;;;29.15;20.75;;;13.50;84.00;;;;;;5046989;28;20850;-32
2022/04/19 01:50:55;;;;;;;29.48;21.50;;;13.40;84.10;;;;;;5037044;28;20670;-32
2022/04/19 01:53:22;;;;;;;29.70;22.08;;;13.40;84.10;;;;;;5046493;28;20200;-32
2022/04/19 01:55:51;;;;;;;31.08;21.73;;;13.30;84.80;;;;;;5028737;28;20240;-32
2022/04/19 01:58:21;;;;;;;31.05;21.98;;;13.30;84.20;;;;;;5039678;28;20200;-32
2022/04/19 02:00:48;;;;;;;30.00;23.45;;;13.30;84.20;;;;;;5042294;28;20288;-33
2022/04/19 02:03:16;;;;;;;30.95;22.58;;;13.20;84.40;;;;;;5029103;28;20209;-32
2022/04/19 02:05:43;;;;;;;31.38;22.50;;;13.20;84.40;;;;;;5026642;28;20300;-32
2022/04/19 02:08:13;;;;;;;29.83;21.27;;;13.20;84.60;;;;;;5042615;28;20208;-32
2022/04/19 02:10:40;;;;;;;29.77;22.57;;;13.20;84.70;;;;;;5038901;28;20344;-32
2022/04/19 02:13:07;;;;;;;29.87;23.07;;;13.10;84.60;;;;;;5048188;28;20220;-32
2022/04/19 02:15:39;;;;;;;30.73;23.38;;;13.10;84.40;;;;;;5046878;28;20238;-32
2022/04/19 02:18:06;;;;;;;30.00;23.03;;;13.10;84.40;;;;;;5040918;28;20296;-33
2022/04/19 02:20:37;;;;;;;31.77;22.77;;;13.10;84.20;;;;;;5038884;28;20196;-32
2022/04/19 02:23:09;;;;;;;34.90;24.50;;;13.00;84.40;;;;;;5029000;28;20200;-32
2022/04/19 02:25:38;;;;;;;34.08;23.67;;;13.00;84.70;;;;;;5028004;28;20683;-34
2022/04/19 02:28:13;;;;;;;33.10;24.47;;;13.00;84.40;;;;;;5028981;28;20321;-32
2022/04/19 02:30:40;;;;;;;33.30;24.70;;;13.00;84.60;;;;;;5029114;28;20208;-33
2022/04/19 02:33:10;;;;;;;32.57;23.43;;;13.00;84.60;;;;;;5027097;28;20208;-32
2022/04/19 02:35:41;;;;;;;34.47;26.25;;;13.00;84.50;;;;;;5028035;28;20715;-44
2022/04/19 02:38:09;;;;;;;34.33;24.90;;;12.90;84.70;;;;;;5037519;28;20211;-44
2022/04/19 02:40:37;;;;;;;37.90;24.90;;;12.90;84.60;;;;;;5042396;28;20212;-46
2022/04/19 02:43:07;;;;;;;33.40;24.97;;;12.90;84.90;;;;;;5048108;28;20224;-44
2022/04/19 02:45:34;;;;;;;34.47;25.17;;;12.80;84.80;;;;;;5045925;28;20311;-44
2022/04/19 02:48:05;;;;;;;37.13;25.00;;;12.80;84.90;;;;;;5047451;28;20202;-47
2022/04/19 02:50:42;;;;;;;33.87;25.10;;;12.80;84.80;;;;;;5027565;28;20208;-45
2022/04/19 02:53:14;;;;;;;40.07;26.33;;;12.80;85.30;;;;;;5028254;28;20757;-45
2022/04/19 02:55:42;;;;;;;36.63;27.20;;;12.70;84.80;;;;;;5027500;28;20268;-45
2022/04/19 02:58:13;;;;;;;37.00;26.43;;;12.70;85.10;;;;;;5026425;28;20209;-46
2022/04/19 03:00:41;;;;;;;39.03;26.87;;;12.70;85.30;;;;;;5038088;28;20305;-45
2022/04/19 03:03:10;;;;;;;36.10;27.53;;;12.70;85.30;;;;;;5028840;28;20209;-44
2022/04/19 03:05:40;;;;;;;36.42;26.35;;;12.60;85.30;;;;;;5038188;28;20266;-46
2022/04/19 03:08:12;;;;;;;37.07;26.87;;;12.60;85.40;;;;;;5043909;28;20947;-46
2022/04/19 03:10:40;;;;;;;36.90;26.03;;;12.50;85.40;;;;;;5036412;28;20259;-45
2022/04/19 03:13:07;;;;;;;38.03;27.70;;;12.50;86.20;;;;;;5027831;28;20208;-46
2022/04/19 03:15:34;;;;;;;40.17;26.50;;;12.50;85.50;;;;;;5026177;28;20967;-46
2022/04/19 03:18:09;;;;;;;37.42;27.75;;;12.40;85.50;;;;;;5027862;28;20753;-45
2022/04/19 03:20:43;;;;;;;38.17;27.53;;;12.40;85.80;;;;;;5037755;28;20188;-46
2022/04/19 03:28:49;;;;;;;37.70;26.53;;;12.20;85.70;;;;;;5047541;28;20592;-45
2022/04/19 03:31:16;;;;;;;38.07;27.67;;;12.20;85.80;;;;;;5042479;28;20659;-47
2022/04/19 03:33:48;;;;;;;36.00;26.47;;;12.10;85.90;;;;;;5047174;28;20314;-46
2022/04/19 03:36:20;;;;;;;41.57;27.43;;;12.10;86.10;;;;;;5030331;28;20224;-46
2022/04/19 03:38:53;;;;;;;39.27;28.60;;;12.00;85.80;;;;;;5026036;28;20205;-46
2022/04/19 03:41:23;;;;;;;37.73;27.33;;;12.00;85.90;;;;;;5044389;28;20204;-45
2022/04/19 03:43:52;;;;;;;34.93;26.90;;;11.90;85.70;;;;;;5047148;28;20215;-45
2022/04/19 03:46:24;;;;;;;39.47;27.77;;;11.90;85.90;;;;;;5046794;28;20422;-45
2022/04/19 03:48:54;;;;;;;38.93;28.43;;;11.90;86.10;;;;;;5033269;28;20472;-46
2022/04/19 03:51:21;;;;;;;37.27;27.03;;;11.90;85.80;;;;;;5028785;28;20240;-46
2022/04/19 03:53:52;;;;;;;38.83;28.37;;;11.90;85.40;;;;;;5027749;28;20248;-45
2022/04/19 03:56:22;;;;;;;39.57;28.33;;;11.90;85.50;;;;;;5030048;28;20307;-46
2022/04/19 03:58:51;;;;;;;40.70;27.97;;;11.90;85.80;;;;;;5035138;28;20270;-45
2022/04/19 04:01:20;;;;;;;43.13;28.77;;;11.90;86.00;;;;;;5041652;28;20224;-46
2022/04/19 04:03:48;;;;;;;38.27;27.33;;;11.90;85.90;;;;;;5029039;28;20205;-32
2022/04/19 04:06:16;;;;;;;38.17;27.57;;;11.80;86.00;;;;;;5027413;28;20251;-32
2022/04/19 04:08:46;;;;;;;36.20;26.87;;;11.80;86.10;;;;;;5029107;28;20373;-32
2022/04/19 04:11:13;;;;;;;35.37;26.03;;;11.80;86.30;;;;;;5032462;28;20688;-32
2022/04/19 04:13:45;;;;;;;38.67;27.30;;;11.70;86.10;;;;;;5027832;28;20308;-32
2022/04/19 04:16:12;;;;;;;38.47;28.20;;;11.70;86.20;;;;;;5025256;28;20246;-32
2022/04/19 04:18:44;;;;;;;41.07;27.93;;;11.70;85.90;;;;;;5027170;28;20208;-33
2022/04/19 04:21:14;;;;;;;39.77;28.13;;;11.70;86.00;;;;;;5030743;28;20204;-32
2022/04/19 04:23:43;;;;;;;38.27;27.30;;;11.70;86.60;;;;;;5045711;28;20196;-32
2022/04/19 04:26:11;;;;;;;40.20;28.47;;;11.70;86.60;;;;;;5040390;28;20508;-32
2022/04/19 04:28:38;;;;;;;43.77;30.43;;;11.70;86.40;;;;;;5030079;28;20236;-32
2022/04/19 04:31:07;;;;;;;41.73;29.53;;;11.60;86.30;;;;;;5037631;28;20205;-32
2022/04/19 04:33:35;;;;;;;40.28;28.95;;;11.60;86.50;;;;;;5039129;28;20208;-32
2022/04/19 04:36:04;;;;;;;41.90;29.90;;;11.60;86.70;;;;;;5029582;28;20217;-32
2022/04/19 04:38:32;;;;;;;40.97;29.80;;;11.50;86.60;;;;;;5029127;28;20223;-32
2022/04/19 04:41:04;;;;;;;40.13;28.40;;;11.50;86.70;;;;;;5029631;28;20208;-32
2022/04/19 04:43:33;;;;;;;42.63;29.97;;;11.50;86.90;;;;;;5038053;28;20272;-32
2022/04/19 04:51:32;;;;;;;40.27;28.87;;;11.40;86.60;;;;;;5061114;28;20307;-45
2022/04/19 04:54:02;;;;;;;43.53;30.40;;;11.30;86.80;;;;;;5028778;28;20690;-47
2022/04/19 04:56:29;;;;;;;39.30;28.27;;;11.30;87.00;;;;;;5029754;28;20237;-45
2022/04/19 04:58:59;;;;;;;38.37;25.10;;;11.30;86.90;;;;;;5030506;28;20199;-32
2022/04/19 05:01:31;;;;;;;32.33;22.13;;;11.30;87.00;;;;;;5029777;28;20214;-47
2022/04/19 05:03:58;;;;;;;34.37;23.37;;;11.30;87.30;;;;;;5036448;28;20243;-44
2022/04/19 05:06:28;;;;;;;35.37;25.27;;;11.20;87.10;;;;;;5030852;28;20208;-46
2022/04/19 05:08:58;;;;;;;35.77;24.27;;;11.20;87.20;;;;;;5050314;28;20687;-46
2022/04/19 05:11:25;;;;;;;38.47;24.67;;;11.20;87.20;;;;;;5048697;28;20282;-46
2022/04/19 05:13:52;;;;;;;32.60;23.77;;;11.20;87.30;;;;;;5035451;28;20221;-46
2022/04/19 05:16:22;;;;;;;33.00;23.40;;;11.10;87.20;;;;;;5028131;28;20320;-45
2022/04/19 05:18:49;;;;;;;35.40;24.23;;;11.10;87.50;;;;;;5035136;28;20219;-44
2022/04/19 05:21:19;;;;;;;32.53;22.43;;;11.10;87.30;;;;;;5032079;28;20204;-45
2022/04/19 05:23:46;;;;;;;34.63;21.00;;;11.10;87.50;;;;;;5037585;28;20709;-46
2022/04/19 05:26:16;;;;;;;24.87;18.20;;;11.10;87.20;;;;;;5029326;28;20636;-44
2022/04/19 05:28:46;;;;;;;27.13;19.00;;;11.10;87.40;;;;;;5029862;28;20215;-46
2022/04/19 05:31:15;;;;;;;26.23;18.70;;;11.10;87.20;;;;;;5029392;28;20627;-45
2022/04/19 05:33:48;;;;;;;28.97;18.27;;;11.20;87.40;;;;;;5029266;28;20582;-45
2022/04/19 05:36:16;;;;;;;26.87;17.93;;;11.20;87.60;;;;;;5029898;28;20663;-45
2022/04/19 05:38:52;;;;;;;26.47;17.30;;;11.20;87.40;;;;;;5028010;28;20228;-46
2022/04/19 05:41:23;;;;;;;24.30;18.40;;;11.20;87.50;;;;;;5029002;28;20200;-46
2022/04/19 05:43:50;;;;;;;27.17;18.40;;;11.20;87.50;;;;;;5043159;28;20220;-47
2022/04/19 05:46:20;;;;;;;26.57;18.23;;;11.30;87.70;;;;;;5034829;28;20643;-46
2022/04/19 05:48:50;;;;;;;26.37;17.43;;;11.30;87.60;;;;;;5035637;28;20204;-46
2022/04/19 05:51:19;;;;;;;25.77;18.43;;;11.30;87.70;;;;;;5029609;28;20208;-46
2022/04/19 05:53:47;;;;;;;27.67;17.90;;;11.30;87.80;;;;;;5032515;28;20208;-47
2022/04/19 05:56:18;;;;;;;28.60;18.00;;;11.40;87.90;;;;;;5033020;28;20367;-45
2022/04/19 05:58:50;;;;;;;31.33;19.27;;;11.40;88.10;;;;;;5029625;28;20216;-45
2022/04/19 06:01:19;;;;;;;26.03;17.93;;;11.40;88.20;;;;;;5047750;28;20686;-46
2022/04/19 06:06:40;;;;;;;33.17;20.17;;;11.50;88.40;;;;;;5027566;28;20628;-45
2022/04/19 06:09:12;;;;;;;29.87;19.73;;;11.60;88.10;;;;;;5029254;28;20710;-45
2022/04/19 06:11:42;;;;;;;29.33;20.87;;;11.60;88.40;;;;;;5027294;28;20243;-46
2022/04/19 06:14:09;;;;;;;34.73;22.10;;;11.70;88.60;;;;;;5029799;28;20224;-46
2022/04/19 06:16:38;;;;;;;41.57;22.80;;;11.80;88.70;;;;;;5043517;28;20714;-48
2022/04/19 06:19:06;;;;;;;36.47;24.47;;;11.80;88.60;;;;;;5027730;28;20623;-46
2022/04/19 06:21:36;;;;;;;35.03;26.07;;;11.90;88.70;;;;;;5032697;28;20612;-47
2022/04/19 06:24:05;;;;;;;39.80;27.53;;;11.90;88.80;;;;;;5029078;28;20228;-45
2022/04/19 06:26:39;;;;;;;35.73;24.57;;;12.00;89.10;;;;;;5034634;28;20227;-46
2022/04/19 06:29:06;;;;;;;41.70;25.83;;;12.10;89.10;;;;;;5032488;28;20209;-46
2022/04/19 06:31:33;;;;;;;37.80;25.40;;;12.10;89.20;;;;;;5035125;28;20211;-46
2022/04/19 06:34:03;;;;;;;38.97;24.93;;;12.20;89.30;;;;;;5029793;28;20212;-46
2022/04/19 06:36:30;;;;;;;38.77;25.37;;;12.30;89.60;;;;;;5033450;28;20307;-46
2022/04/19 06:39:00;;;;;;;39.33;25.20;;;12.30;89.60;;;;;;5034187;28;20213;-46
2022/04/19 06:41:32;;;;;;;40.35;26.73;;;12.40;89.80;;;;;;5044234;28;20193;-45
2022/04/19 06:44:02;;;;;;;41.60;26.15;;;12.50;90.00;;;;;;5037755;28;20212;-46
2022/04/19 06:46:29;;;;;;;36.05;27.65;;;12.50;89.80;;;;;;5028524;28;20262;-48
2022/04/19 06:48:56;;;;;;;35.80;27.05;;;12.60;89.90;;;;;;5053487;28;20619;-45
2022/04/19 06:51:25;;;;;;;40.58;26.60;;;12.70;90.00;;;;;;5026880;28;20209;-46
2022/04/19 06:54:04;;;;;;;36.75;26.73;;;12.80;90.10;;;;;;5029416;28;20610;-46
2022/04/19 06:56:31;;;;;;;36.07;25.47;;;12.90;90.20;;;;;;5034366;28;20314;-46
2022/04/19 06:59:01;;;;;;;33.00;24.23;;;12.90;90.10;;;;;;5033730;28;20542;-48
2022/04/19 07:01:38;;;;;;;34.63;26.07;;;13.00;90.10;;;;;;5026977;28;20215;-48
2022/04/19 07:04:10;;;;;;;36.45;24.67;;;13.10;90.20;;;;;;5034155;28;20201;-50
2022/04/19 07:06:37;;;;;;;34.17;25.33;;;13.20;90.30;;;;;;5042748;28;20290;-48
2022/04/19 07:09:05;;;;;;;35.27;25.03;;;13.20;90.30;;;;;;5035834;28;20212;-50
2022/04/19 07:11:36;;;;;;;32.37;24.00;;;13.30;90.30;;;;;;5041393;28;20220;-51
2022/04/19 07:14:06;;;;;;;27.17;21.60;;;13.40;90.40;;;;;;5036684;28;20279;-50
2022/04/19 07:16:36;;;;;;;25.45;20.15;;;13.40;90.30;;;;;;5042199;28;20282;-50
2022/04/19 07:19:05;;;;;;;26.58;20.33;;;13.50;90.40;;;;;;5036788;28;20296;-50
2022/04/19 07:27:22;;;;;;;34.70;24.27;;;13.70;90.50;;;;;;5031828;28;20201;-48
2022/04/19 07:29:49;;;;;;;30.05;23.00;;;13.80;90.70;;;;;;5033223;28;20224;-50
2022/04/19 07:32:21;;;;;;;31.98;22.90;;;13.80;90.60;;;;;;5030365;28;20197;-51
2022/04/19 07:34:49;;;;;;;31.75;23.75;;;13.90;90.60;;;;;;5038398;28;20208;-50
2022/04/19 07:37:19;;;;;;;31.73;21.45;;;13.90;90.70;;;;;;5032607;28;20228;-47
2022/04/19 07:39:48;;;;;;;27.58;21.02;;;14.00;90.70;;;;;;5039360;28;20201;-47
2022/04/19 07:42:16;;;;;;;24.83;18.52;;;14.10;90.70;;;;;;5026580;28;20193;-46
2022/04/19 07:44:44;;;;;;;29.88;20.10;;;14.20;90.70;;;;;;5028305;28;20244;-46
2022/04/19 07:47:14;;;;;;;26.60;19.70;;;14.30;90.80;;;;;;5029307;28;20261;-47
2022/04/19 07:49:47;;;;;;;27.80;19.48;;;14.30;90.70;;;;;;5030589;28;20243;-47
2022/04/19 07:52:17;;;;;;;26.65;18.27;;;14.40;90.70;;;;;;5039798;28;20212;-46
2022/04/19 07:54:47;;;;;;;24.58;17.77;;;14.50;90.70;;;;;;5028283;28;20691;-47
2022/04/19 07:57:21;;;;;;;25.30;18.15;;;14.60;90.80;;;;;;5034366;28;20362;-45
2022/04/19 07:59:55;;;;;;;21.50;16.67;;;14.70;90.90;;;;;;5044524;28;20204;-45
2022/04/19 08:02:24;;;;;;;20.60;16.80;;;14.80;90.90;;;;;;5046286;28;20295;-47
2022/04/19 08:04:51;;;;;;;24.52;17.10;;;14.90;90.90;;;;;;5042563;28;20228;-46
2022/04/19 08:07:18;;;;;;;22.20;17.15;;;14.90;90.90;;;;;;5036766;28;20212;-45
2022/04/19 08:09:51;;;;;;;22.60;17.90;;;15.00;90.90;;;;;;5032115;28;20208;-45
2022/04/19 08:12:20;;;;;;;25.05;18.42;;;15.00;91.00;;;;;;5040817;28;20220;-45
2022/04/19 08:14:47;;;;;;;20.02;16.33;;;15.10;91.10;;;;;;5037901;28;20814;-46
2022/04/19 08:17:17;;;;;;;20.05;15.95;;;15.20;91.00;;;;;;5041524;28;20706;-45
2022/04/19 08:19:44;;;;;;;20.08;15.23;;;15.30;91.10;;;;;;5047215;28;20220;-45
2022/04/19 08:22:14;;;;;;;19.77;14.85;;;15.30;91.00;;;;;;5034323;28;20201;-45
2022/04/19 08:24:42;;;;;;;16.80;13.45;;;15.40;91.10;;;;;;5034816;28;20604;-46
2022/04/19 08:27:10;;;;;;;18.92;13.25;;;15.50;91.00;;;;;;5032406;28;20290;-47
2022/04/19 08:29:39;;;;;;;13.80;12.35;;;15.50;91.00;;;;;;5042019;28;20299;-35
2022/04/19 08:32:09;;;;;;;16.35;12.70;;;15.60;91.00;;;;;;5032216;28;20220;-35
2022/04/19 08:34:39;;;;;;;16.05;12.43;;;15.60;91.00;;;;;;5031253;28;21840;-35
2022/04/19 08:37:14;;;;;;;14.27;10.02;;;15.70;91.00;;;;;;5043357;28;20375;-35
2022/04/19 08:39:44;;;;;;;12.55;8.50;;;15.70;91.00;;;;;;5031093;28;20201;-35
2022/04/19 08:42:16;;;;;;;9.75;7.70;;;15.80;90.90;;;;;;5037761;28;20204;-33
2022/04/19 08:44:50;;;;;;;12.15;7.68;;;15.90;90.80;;;;;;5033892;28;20228;-33
2022/04/19 08:47:18;;;;;;;12.55;7.78;;;16.00;90.70;;;;;;5029307;28;20221;-34
2022/04/19 08:49:48;;;;;;;10.20;7.22;;;16.00;90.70;;;;;;5040013;28;20201;-34
2022/04/19 08:52:19;;;;;;;10.77;6.90;;;16.10;90.70;;;;;;5031935;28;20286;-34
2022/04/19 08:57:40;;;;;;;7.65;5.88;;;16.20;90.50;;;;;;5028860;28;20297;-35
2022/04/19 09:00:08;;;;;;;10.63;7.30;;;16.20;90.00;;;;;;5029298;28;20201;-35
2022/04/19 09:02:40;;;;;;;10.65;7.47;;;16.30;90.20;;;;;;5030006;28;20231;-35
2022/04/19 09:05:19;;;;;;;9.70;7.00;;;16.40;90.10;;;;;;5027056;28;20262;-35
2022/04/19 09:07:50;;;;;;;10.40;6.80;;;16.50;90.40;;;;;;5033846;28;20238;-34
2022/04/19 09:10:34;;;;;;;10.30;6.95;;;16.60;90.50;;;;;;5027201;28;20208;-34
2022/04/19 09:13:11;;;;;;;8.77;6.30;;;16.70;90.40;;;;;;5028749;28;20279;-35
2022/04/19 09:15:40;;;;;;;8.48;6.30;;;16.80;90.60;;;;;;5030376;28;20220;-34
2022/04/19 09:18:30;;;;;;;7.95;6.57;;;16.90;90.60;;;;;;5033881;28;20518;-44
2022/04/19 09:21:00;;;;;;;9.93;6.40;;;17.00;90.70;;;;;;5028897;28;20301;-44
2022/04/19 09:23:33;;;;;;;8.25;5.60;;;17.10;90.70;;;;;;5033443;28;20201;-44
2022/04/19 09:26:05;;;;;;;9.43;7.00;;;17.20;90.80;;;;;;5030947;28;20205;-34
2022/04/19 09:28:38;;;;;;;9.32;6.60;;;17.30;90.00;;;;;;5031475;28;20209;-34
2022/04/19 09:31:12;;;;;;;9.43;6.40;;;17.30;90.60;;;;;;5042052;28;20209;-34
2022/04/19 09:33:39;;;;;;;10.07;6.03;;;17.40;90.40;;;;;;5029481;28;20878;-34
2022/04/19 09:36:09;;;;;;;11.05;7.03;;;17.50;90.70;;;;;;5027018;28;20571;-35
2022/04/19 09:38:46;;;;;;;7.82;5.45;;;17.50;90.20;;;;;;5031877;28;20353;-45
2022/04/19 09:41:28;;;;;;;7.78;5.32;;;17.60;89.90;;;;;;5029826;28;20281;-43
2022/04/19 09:44:11;;;;;;;8.07;6.00;;;17.60;88.60;;;;;;5028473;28;20216;-43
2022/04/19 09:46:41;;;;;;;8.75;7.00;;;17.70;89.30;;;;;;5028229;28;20209;-43
2022/04/19 09:49:09;;;;;;;9.30;6.22;;;17.70;89.20;;;;;;5049315;28;20276;-42
2022/04/19 09:51:41;;;;;;;10.55;7.05;;;17.80;89.40;;;;;;5026961;28;20241;-42
2022/04/19 09:54:23;;;;;;;8.73;6.43;;;17.80;88.70;;;;;;5026680;28;20220;-42
2022/04/19 09:56:53;;;;;;;10.05;7.03;;;17.90;88.90;;;;;;5034600;28;20229;-42
2022/04/19 09:59:25;;;;;;;9.90;6.93;;;17.90;89.00;;;;;;5026849;28;20771;-42
2022/04/19 10:10:28;;;;;;;9.98;7.57;;;18.20;88.10;;;;;;5030199;28;20200;-42
2022/04/19 10:12:57;;;;;;;9.27;7.07;;;18.20;89.80;;;;;;5046436;28;20196;-43
2022/04/19 10:15:25;;;;;;;9.90;7.53;;;18.30;89.30;;;;;;5029062;28;20319;-42
2022/04/19 10:17:52;;;;;;;8.55;7.32;;;18.40;89.60;;;;;;5028230;28;20256;-43
2022/04/19 10:20:31;;;;;;;11.07;6.82;;;18.40;87.70;;;;;;5028102;28;20197;-44
2022/04/19 10:23:09;;;;;;;9.48;7.10;;;18.50;88.90;;;;;;5045395;28;20508;-43
2022/04/19 10:25:43;;;;;;;10.43;8.07;;;18.50;86.80;;;;;;5010122;28;20200;-43
2022/04/19 10:28:27;;;;;;;8.90;7.13;;;18.60;88.40;;;;;;5031705;28;20304;-42
2022/04/19 10:30:55;;;;;;;10.52;8.07;;;18.60;89.50;;;;;;5027550;28;20280;-43
2022/04/19 10:33:48;;;;;;;11.85;8.52;;;18.60;88.80;;;;;;5043170;28;20310;-43
2022/04/19 10:36:22;;;;;;;9.35;7.63;;;18.70;89.20;;;;;;5035319;28;20252;-42
2022/04/19 10:39:11;;;;;;;12.30;8.73;;;18.70;89.60;;;;;;5027156;28;20199;-43
2022/04/19 10:41:59;;;;;;;11.93;8.75;;;18.80;89.70;;;;;;5034898;28;20238;-43
2022/04/19 10:44:31;;;;;;;12.23;8.45;;;18.90;90.00;;;;;;5027644;28;20469;-42
2022/04/19 10:47:23;;;;;;;12.65;9.20;;;19.00;89.50;;;;;;5027680;28;20201;-43
2022/04/19 10:50:09;;;;;;;11.20;8.15;;;19.10;89.00;;;;;;5027078;28;20654;-43
2022/04/19 10:52:36;;;;;;;9.45;6.55;;;19.10;89.50;;;;;;5036651;28;20200;-43
2022/04/19 10:55:27;;;;;;;8.20;6.43;;;19.20;89.90;;;;;;5043744;28;20741;-43
2022/04/19 10:58:16;;;;;;;7.43;6.28;;;19.20;89.90;;;;;;5027721;28;20232;-43
2022/04/19 11:01:00;;;;;;;9.32;6.05;;;19.30;89.70;;;;;;5025041;28;20208;-43
2022/04/19 11:03:37;;;;;;;7.10;5.80;;;19.30;89.90;;;;;;5032738;28;20197;-43
2022/04/19 11:06:30;;;;;;;6.47;5.10;;;19.40;90.00;;;;;;5038448;28;20228;-43
2022/04/19 11:09:21;;;;;;;8.27;5.60;;;19.40;90.00;;;;;;5036089;28;20233;-42
2022/04/19 11:12:09;;;;;;;5.45;4.50;;;19.50;85.50;;;;;;5025493;28;20204;-43
2022/04/19 11:14:41;;;;;;;10.05;5.55;;;19.50;88.30;;;;;;5027979;28;20515;-43
2022/04/19 11:17:39;;;;;;;7.25;5.18;;;19.50;85.60;;;;;;5026154;28;20591;-43
2022/04/19 11:20:14;;;;;;;7.07;4.82;;;19.50;87.00;;;;;;5032147;28;20200;-40
2022/04/19 11:22:51;;;;;;;6.13;4.50;;;19.50;87.30;;;;;;5034956;28;20203;-39
2022/04/19 11:25:40;;;;;;;6.07;4.97;;;19.50;86.60;;;;;;5028759;28;20219;-41
2022/04/19 11:28:09;;;;;;;6.15;4.53;;;19.50;86.10;;;;;;5033563;28;20219;-41
2022/04/19 11:31:00;;;;;;;7.32;4.53;;;19.50;87.00;;;;;;5035878;28;20204;-37
2022/04/19 11:33:34;;;;;;;6.32;3.90;;;19.50;86.30;;;;;;5027347;28;20205;-36
2022/04/19 11:36:11;;;;;;;4.95;4.20;;;19.60;87.60;;;;;;5040853;28;20232;-34
2022/04/19 11:38:48;;;;;;;5.57;3.85;;;19.60;87.10;;;;;;5029506;28;20200;-35
2022/04/19 11:46:55;;;;;;;5.75;4.10;;;19.80;88.40;;;;;;5047126;28;20301;-42
2022/04/19 11:49:22;;;;;;;7.13;4.65;;;19.90;88.20;;;;;;5045292;28;20212;-42
2022/04/19 11:51:54;;;;;;;6.75;3.85;;;19.90;87.80;;;;;;5034997;28;20295;-41
2022/04/19 11:54:34;;;;;;;5.22;3.78;;;20.00;88.20;;;;;;5044206;28;20770;-40
2022/04/19 11:57:09;;;;;;;5.25;3.53;;;20.10;86.90;;;;;;5042819;28;20232;-41
2022/04/19 11:59:41;;;;;;;6.88;4.10;;;20.10;87.70;;;;;;5041885;28;20274;-40
2022/04/19 12:02:22;;;;;;;6.55;3.90;;;20.10;86.40;;;;;;5033608;28;20224;-40
2022/04/19 12:04:57;;;;;;;8.48;4.88;;;20.10;87.10;;;;;;5041577;28;20204;-40
2022/04/19 12:07:27;;;;;;;10.93;4.70;;;20.10;86.30;;;;;;5030154;28;20335;-40
2022/04/19 12:09:58;;;;;;;5.70;4.40;;;20.20;84.90;;;;;;5028463;28;20219;-40
2022/04/19 12:12:28;;;;;;;6.78;4.78;;;20.20;86.50;;;;;;5033786;28;20244;-41
2022/04/19 12:14:55;;;;;;;7.15;4.28;;;20.20;86.10;;;;;;5041083;28;20287;-41
2022/04/19 12:17:26;;;;;;;7.38;5.05;;;20.20;87.00;;;;;;5029930;28;20233;-41
2022/04/19 12:20:02;;;;;;;6.43;4.22;;;20.30;85.90;;;;;;5040362;28;20205;-41
2022/04/19 12:22:34;;;;;;;10.02;5.18;;;20.40;87.30;;;;;;5038617;28;20775;-40
2022/04/19 12:25:03;;;;;;;7.30;4.38;;;20.40;86.50;;;;;;5031227;28;20203;-40
2022/04/19 12:27:33;;;;;;;6.03;4.47;;;20.50;87.70;;;;;;5035523;28;20227;-40
2022/04/19 12:30:09;;;;;;;6.43;4.65;;;20.60;87.90;;;;;;5043061;28;20215;-41
2022/04/19 12:32:59;;;;;;;8.95;4.60;;;20.60;87.90;;;;;;5030592;28;20204;-40
2022/04/19 12:35:34;;;;;;;6.97;5.43;;;20.70;88.10;;;;;;5035315;28;20220;-40
2022/04/19 12:38:18;;;;;;;6.60;4.82;;;20.70;87.70;;;;;;5039875;28;20213;-43
2022/04/19 12:40:48;;;;;;;6.45;4.45;;;20.80;88.40;;;;;;5028869;28;20691;-41
2022/04/19 12:43:18;;;;;;;5.88;4.30;;;20.90;86.70;;;;;;5036470;28;20579;-40
2022/04/19 12:45:46;;;;;;;8.77;4.82;;;20.90;87.00;;;;;;5048343;28;20294;-40
2022/04/19 12:48:32;;;;;;;6.45;4.20;;;20.80;85.90;;;;;;5055678;28;20622;-41
2022/04/19 12:51:03;;;;;;;7.63;4.85;;;20.90;86.10;;;;;;5035733;28;20280;-41
2022/04/19 12:53:35;;;;;;;7.38;4.30;;;20.90;86.60;;;;;;5049379;28;20577;-36
2022/04/19 12:56:12;;;;;;;6.07;5.07;;;21.00;87.40;;;;;;5042370;28;20702;-36
2022/04/19 12:58:44;;;;;;;9.30;5.68;;;21.00;86.90;;;;;;5030092;28;20367;-36
2022/04/19 13:01:13;;;;;;;7.68;5.75;;;21.10;86.90;;;;;;5039880;28;20196;-41
2022/04/19 13:03:43;;;;;;;8.15;5.50;;;21.10;86.20;;;;;;5047809;28;20289;-41
2022/04/19 13:14:29;;;;;;;9.15;6.75;;;21.20;85.60;;;;;;5028587;28;20205;-40
2022/04/19 13:16:57;;;;;;;9.50;6.43;;;21.20;83.50;;;;;;5041827;28;20298;-40
2022/04/19 13:19:25;;;;;;;8.50;6.13;;;21.20;85.00;;;;;;5041252;28;20216;-39
2022/04/19 13:21:55;;;;;;;9.68;5.75;;;21.20;86.90;;;;;;5038010;28;20626;-40
2022/04/19 13:24:22;;;;;;;13.38;5.70;;;21.30;86.70;;;;;;5028925;28;20209;-40
2022/04/19 13:26:49;;;;;;;8.10;5.70;;;21.40;87.20;;;;;;5038127;28;20574;-40
2022/04/19 13:29:22;;;;;;;9.48;6.68;;;21.50;87.40;;;;;;5039396;28;20264;-39
2022/04/19 13:31:49;;;;;;;10.32;6.10;;;21.50;86.70;;;;;;5031943;28;20215;-41
2022/04/19 13:34:18;;;;;;;10.15;6.07;;;21.60;86.30;;;;;;5029741;28;20203;-41
2022/04/19 13:36:45;;;;;;;7.78;5.68;;;21.60;86.60;;;;;;5047005;28;20224;-41
2022/04/19 13:39:13;;;;;;;9.45;6.70;;;21.60;86.60;;;;;;5032636;28;20222;-41